Time;durP1;ratioP1;P1;durP2;ratioP2;P2;SDS_P1;SDS_P2;PMS_P1;PMS_P2;Temp;Humidity;BMP_temperature;BMP_pressure;BME280_temperature;BME280_humidity;BME280_pressure;Samples;Min_cycle;Max_cycle;Signal;HPM_P1;HPM_P2
2021/04/12 00:01:12;;;;;;;6.55;5.33;;;;;;;7.65;39.97;99775.23;1764277;79;20988;-55
2021/04/12 00:03:53;;;;;;;6.53;4.95;;;;;;;7.63;40.00;99770.58;1767072;79;21034;-57
2021/04/12 00:06:25;;;;;;;6.72;5.03;;;;;;;7.61;39.97;99768.58;1786018;79;21376;-57
2021/04/12 00:09:06;;;;;;;5.37;4.47;;;;;;;7.58;39.96;99767.53;1791780;79;20986;-57
2021/04/12 00:11:56;;;;;;;6.97;4.80;;;;;;;7.55;39.93;99762.52;1756683;79;21017;-56
2021/04/12 00:14:40;;;;;;;7.25;5.12;;;;;;;7.50;39.98;99756.34;1754453;79;20979;-56
2021/04/12 00:17:15;;;;;;;7.00;5.03;;;;;;;7.45;40.03;99758.11;1734937;81;21519;-56
2021/04/12 00:20:20;;;;;;;6.75;5.12;;;;;;;7.40;40.08;99754.22;1749639;79;21084;-55
2021/04/12 00:22:58;;;;;;;7.17;5.08;;;;;;;7.35;40.07;99751.98;1749902;81;21006;-57
2021/04/12 00:25:47;;;;;;;7.12;5.08;;;;;;;7.32;40.05;99746.16;1756938;79;20958;-55
2021/04/12 00:28:32;;;;;;;6.42;5.08;;;;;;;7.31;39.99;99753.73;1763213;79;21016;-60
2021/04/12 00:31:08;;;;;;;6.97;5.20;;;;;;;7.28;40.03;99753.54;1747061;79;20937;-55
2021/04/12 00:33:48;;;;;;;9.28;4.92;;;;;;;7.25;40.07;99751.17;1760749;79;21000;-55
2021/04/12 00:36:29;;;;;;;7.80;5.65;;;;;;;7.22;40.16;99745.35;1765798;79;21008;-56
2021/04/12 00:39:17;;;;;;;7.17;5.08;;;;;;;7.17;40.26;99747.08;1758804;79;21527;-55
2021/04/12 00:42:08;;;;;;;6.28;5.00;;;;;;;7.11;40.42;99743.70;1748547;79;21053;-55
2021/04/12 00:45:11;;;;;;;5.53;4.50;;;;;;;7.02;40.61;99737.92;1742423;79;20989;-56
2021/04/12 00:48:26;;;;;;;5.92;4.80;;;;;;;6.96;40.79;99742.95;1779099;80;21194;-55
2021/04/12 00:51:02;;;;;;;9.13;4.83;;;;;;;6.89;40.88;99744.47;1728302;82;21004;-57
2021/04/12 00:54:05;;;;;;;5.65;4.90;;;;;;;6.84;40.91;99741.77;1772041;79;20907;-56
2021/04/12 00:56:59;;;;;;;10.25;5.45;;;;;;;6.82;40.93;99742.41;1752464;79;21128;-57
2021/04/12 01:00:06;;;;;;;6.37;4.58;;;;;;;6.80;40.97;99731.11;1765891;79;21124;-56
2021/04/12 01:03:13;;;;;;;7.55;5.28;;;;;;;6.79;41.01;99729.94;1752761;79;21192;-58
2021/04/12 01:05:58;;;;;;;7.47;6.00;;;;;;;6.76;41.06;99732.86;1771415;79;21073;-56
2021/04/12 01:09:01;;;;;;;8.80;5.35;;;;;;;6.71;41.12;99725.36;1763666;79;21113;-56
2021/04/12 01:12:07;;;;;;;10.13;6.10;;;;;;;6.70;41.15;99728.96;1750962;81;21136;-56
2021/04/12 01:15:25;;;;;;;7.75;5.15;;;;;;;6.69;41.15;99727.80;1783937;79;21152;-56
2021/04/12 01:18:34;;;;;;;11.18;6.85;;;;;;;6.68;41.09;99728.28;1772260;79;21555;-57
2021/04/12 01:21:42;;;;;;;9.43;5.97;;;;;;;6.68;41.11;99731.41;1759976;79;21025;-55
2021/04/12 01:24:39;;;;;;;10.10;5.75;;;;;;;6.67;41.14;99722.62;1781770;79;21011;-60
2021/04/12 01:27:45;;;;;;;7.55;5.62;;;;;;;6.66;41.28;99724.94;1773718;80;20926;-55
2021/04/12 01:30:48;;;;;;;7.03;5.40;;;;;;;6.64;41.33;99724.73;1728456;79;26392;-55
2021/04/12 01:34:10;;;;;;;7.00;5.45;;;;;;;6.61;41.42;99717.08;1800203;79;21380;-55
2021/04/12 01:37:28;;;;;;;5.67;5.03;;;;;;;6.58;41.50;99727.45;1781076;79;20942;-56
2021/04/12 01:40:26;;;;;;;5.80;4.50;;;;;;;6.54;41.59;99729.19;1773901;79;21109;-58
2021/04/12 01:43:21;;;;;;;8.53;5.25;;;;;;;6.49;41.77;99725.62;1773911;79;20981;-56
2021/04/12 01:45:56;;;;;;;6.97;4.95;;;;;;;6.45;41.95;99722.08;1786586;79;20923;-55
2021/04/12 01:49:06;;;;;;;5.33;4.80;;;;;;;6.38;42.18;99715.20;1801528;79;21367;-55
2021/04/12 01:51:58;;;;;;;6.65;4.90;;;;;;;6.34;42.31;99711.63;1793745;79;21573;-56
2021/04/12 01:54:43;;;;;;;5.80;4.58;;;;;;;6.31;42.44;99715.38;1697695;83;21064;-57
2021/04/12 01:57:58;;;;;;;5.53;4.87;;;;;;;6.29;42.57;99711.20;1709056;83;21131;-55
2021/04/12 02:01:01;;;;;;;6.67;5.62;;;;;;;6.27;42.67;99716.64;1783708;79;21129;-55
2021/04/12 02:03:37;;;;;;;7.42;5.15;;;;;;;6.23;42.79;99711.78;1773887;79;21198;-58
2021/04/12 02:06:14;;;;;;;;;;;;;;;6.19;42.92;99709.88;1789613;79;21161;-56
2021/04/12 02:09:07;;;;;;;6.00;4.30;;;;;;;6.15;42.99;99706.67;1800493;79;20274;-58
2021/04/12 02:11:52;;;;;;;6.12;4.78;;;;;;;6.10;43.15;99703.61;1747283;80;21048;-58
2021/04/12 02:14:40;;;;;;;6.47;5.30;;;;;;;6.06;43.25;99702.22;1796295;79;20914;-56
2021/04/12 02:17:31;;;;;;;6.67;5.05;;;;;;;6.02;43.38;99703.45;1766093;79;21480;-57
2021/04/12 02:20:22;;;;;;;5.70;4.70;;;;;;;5.99;43.47;99699.78;1754746;79;21132;-59
2021/04/12 02:23:22;;;;;;;5.97;5.28;;;;;;;5.99;43.44;99700.27;1773981;79;21013;-55
2021/04/12 02:26:04;;;;;;;5.58;4.53;;;;;;;5.99;43.35;99705.07;1788873;79;21011;-55
2021/04/12 02:28:59;;;;;;;5.45;4.50;;;;;;;6.03;43.22;99699.85;1787071;79;21109;-55
2021/04/12 02:31:47;;;;;;;8.63;4.80;;;;;;;6.05;43.12;99697.90;1773852;79;21402;-55
2021/04/12 02:34:44;;;;;;;6.15;4.40;;;;;;;6.07;43.08;99698.63;1773734;79;21186;-56
2021/04/12 02:37:26;;;;;;;8.03;4.87;;;;;;;6.08;43.06;99691.03;1782365;79;20977;-58
2021/04/12 02:40:29;;;;;;;7.42;4.87;;;;;;;6.09;43.03;99692.71;1781345;79;21570;-55
2021/04/12 02:43:06;;;;;;;6.75;4.58;;;;;;;6.10;43.02;99684.31;1790699;79;21075;-57
2021/04/12 02:45:58;;;;;;;;;;;;;;;6.09;43.02;99686.59;1797446;79;21390;-55
2021/04/12 02:48:57;;;;;;;6.33;4.20;;;;;;;6.08;43.06;99688.39;1794424;79;20125;-55
2021/04/12 02:51:36;;;;;;;;;;;;;;;6.06;43.12;99687.70;1775260;79;21209;-55
2021/04/12 02:54:08;;;;;;;5.72;4.55;;;;;;;6.02;43.30;99685.47;1773778;79;20108;-58
2021/04/12 02:57:06;;;;;;;7.83;5.42;;;;;;;5.97;43.39;99686.38;1769622;79;20997;-56
2021/04/12 03:00:08;;;;;;;5.47;4.87;;;;;;;5.93;43.50;99685.80;1788300;79;21205;-56
2021/04/12 03:02:54;;;;;;;8.75;5.30;;;;;;;5.91;43.72;99684.27;1804005;79;21488;-55
2021/04/12 03:05:49;;;;;;;9.10;6.35;;;;;;;5.84;43.82;99672.04;1780455;79;21061;-55
2021/04/12 03:09:01;;;;;;;8.75;6.20;;;;;;;5.81;43.93;99668.38;1775682;79;21128;-57
2021/04/12 03:12:01;;;;;;;7.67;5.45;;;;;;;5.79;44.05;99670.30;1773990;79;21031;-55
2021/04/12 03:14:55;;;;;;;5.67;5.05;;;;;;;5.77;44.12;99666.96;1786432;79;21432;-57
2021/04/12 03:17:46;;;;;;;8.25;5.55;;;;;;;5.75;44.21;99665.43;1751797;79;21061;-58
2021/04/12 03:20:53;;;;;;;5.67;4.90;;;;;;;5.74;44.38;99663.75;1840570;77;22688;-55
2021/04/12 03:23:47;;;;;;;8.45;5.03;;;;;;;5.67;44.45;99666.11;1805363;78;20938;-57
2021/04/12 03:26:37;;;;;;;6.58;4.03;;;;;;;5.65;44.51;99666.73;1811332;78;22355;-55
2021/04/12 03:29:15;;;;;;;5.78;4.65;;;;;;;5.62;44.69;99664.36;1814451;78;21013;-55
2021/04/12 03:32:17;;;;;;;6.10;5.25;;;;;;;5.57;44.95;99663.92;1814185;78;21013;-58
2021/04/12 03:35:24;;;;;;;7.83;6.28;;;;;;;5.54;45.07;99665.51;1808173;78;21025;-55
2021/04/12 03:38:12;;;;;;;9.48;6.12;;;;;;;5.53;45.17;99659.87;1800272;78;20931;-57
2021/04/12 03:41:03;;;;;;;6.78;5.17;;;;;;;5.60;45.17;99657.06;1813778;78;21354;-56
2021/04/12 03:43:59;;;;;;;7.85;5.03;;;;;;;5.69;45.08;99658.04;1815428;78;20996;-57
2021/04/12 03:46:47;;;;;;;6.42;5.55;;;;;;;5.79;44.99;99657.60;1815349;78;20970;-55
2021/04/12 03:49:46;;;;;;;6.00;4.90;;;;;;;5.89;44.83;99656.66;1807504;78;21006;-55
2021/04/12 03:52:42;;;;;;;7.33;5.35;;;;;;;6.03;44.60;99658.07;1815328;78;21132;-58
2021/04/12 03:55:39;;;;;;;8.15;5.33;;;;;;;6.21;44.29;99653.30;1776295;78;21199;-56
2021/04/12 03:58:18;;;;;;;6.67;5.10;;;;;;;6.41;43.89;99654.63;1796889;78;21140;-57
2021/04/12 04:01:25;;;;;;;8.40;5.28;;;;;;;6.66;43.43;99652.72;1808081;78;21041;-56
2021/04/12 04:07:45;;;;;;;5.35;4.55;;;;;;;7.12;42.35;99651.42;1691033;83;21211;-56
2021/04/12 04:10:50;;;;;;;8.00;5.45;;;;;;;7.38;41.83;99652.44;1686921;83;21218;-58
2021/04/12 04:13:56;;;;;;;7.72;5.47;;;;;;;7.59;41.45;99650.88;1678802;83;21152;-56
2021/04/12 04:16:52;;;;;;;6.47;5.33;;;;;;;7.83;41.02;99650.34;1689728;83;21020;-59
2021/04/12 04:19:55;;;;;;;7.45;5.10;;;;;;;8.06;40.60;99651.09;1661457;84;21140;-59
2021/04/12 04:22:46;;;;;;;8.63;5.50;;;;;;;8.32;40.23;99644.58;1686139;83;21515;-56
2021/04/12 04:25:22;;;;;;;7.75;5.47;;;;;;;8.66;39.72;99641.55;1680896;83;21473;-56
2021/04/12 04:28:45;;;;;;;6.92;5.28;;;;;;;9.01;39.14;99639.81;1661293;84;21132;-58
2021/04/12 04:31:36;;;;;;;9.45;5.47;;;;;;;9.26;38.72;99645.59;1685992;83;21122;-56
2021/04/12 04:34:30;;;;;;;9.10;5.97;;;;;;;9.53;38.47;99638.77;1684452;83;21189;-58
2021/04/12 04:37:30;;;;;;;7.60;6.03;;;;;;;9.70;37.73;99644.46;1666874;84;21123;-57
2021/04/12 04:40:06;;;;;;;7.53;5.47;;;;;;;9.82;37.49;99647.18;1672562;84;22382;-55
2021/04/12 04:43:00;;;;;;;8.08;5.87;;;;;;;9.92;37.27;99647.88;1670583;84;21038;-56
2021/04/12 04:45:56;;;;;;;7.67;6.35;;;;;;;10.07;37.13;99645.89;1675155;84;21148;-55
2021/04/12 04:48:58;;;;;;;8.93;6.12;;;;;;;10.31;36.90;99645.98;1672725;84;20966;-58
2021/04/12 04:51:46;;;;;;;11.78;5.55;;;;;;;10.52;36.44;99639.19;1668600;84;21170;-58
2021/04/12 04:54:40;;;;;;;7.42;5.97;;;;;;;10.77;36.40;99640.48;1667908;84;22627;-58
2021/04/12 04:57:19;;;;;;;6.55;5.72;;;;;;;11.04;35.79;99643.63;1666814;84;21195;-58
2021/04/12 05:00:21;;;;;;;8.30;6.03;;;;;;;11.24;35.51;99641.41;1671465;84;21157;-58
2021/04/12 05:03:43;;;;;;;7.95;5.83;;;;;;;11.43;35.17;99655.69;1580961;89;21253;-56
2021/04/12 05:07:02;;;;;;;9.30;5.87;;;;;;;11.55;34.67;99658.82;1656582;83;21217;-59
2021/04/12 05:09:54;;;;;;;6.87;5.70;;;;;;;11.58;34.50;99650.45;1676459;83;21388;-57
2021/04/12 05:13:11;;;;;;;9.35;6.17;;;;;;;11.76;34.51;99651.91;1673813;83;21226;-59
2021/04/12 05:16:10;;;;;;;10.00;5.58;;;;;;;11.95;34.12;99649.33;1675104;84;21214;-65
2021/04/12 05:19:25;;;;;;;6.50;5.42;;;;;;;12.12;33.85;99644.74;1674432;84;21201;-58
2021/04/12 05:22:24;;;;;;;7.53;5.72;;;;;;;12.20;33.83;99642.84;1675173;84;21312;-55
2021/04/12 05:25:19;;;;;;;9.10;5.47;;;;;;;12.48;33.39;99646.33;1676452;84;22222;-56
2021/04/12 05:28:07;;;;;;;7.17;5.87;;;;;;;12.74;33.21;99634.27;1675974;84;21214;-57
2021/04/12 05:30:52;;;;;;;6.12;5.53;;;;;;;13.08;33.01;99637.82;1672029;84;21127;-59
2021/04/12 05:33:49;;;;;;;10.43;6.05;;;;;;;13.37;32.96;99637.84;1627713;84;21176;-56
2021/04/12 05:36:49;;;;;;;7.65;6.28;;;;;;;13.76;32.03;99640.72;1676674;84;21119;-58
2021/04/12 05:39:57;;;;;;;6.28;5.67;;;;;;;13.99;32.04;99634.72;1676288;84;21225;-56
2021/04/12 05:42:55;;;;;;;6.60;5.92;;;;;;;14.18;31.60;99624.76;1676646;84;21126;-60
2021/04/12 05:45:32;;;;;;;7.92;5.12;;;;;;;14.37;31.15;99624.14;1662488;84;21016;-57
2021/04/12 05:48:55;;;;;;;7.62;5.17;;;;;;;14.57;30.80;99618.46;1676765;83;28299;-58
2021/04/12 05:51:28;;;;;;;7.33;5.87;;;;;;;14.74;31.83;99628.40;1701540;83;21106;-59
2021/04/12 05:54:35;;;;;;;6.90;5.17;;;;;;;14.96;30.07;99627.36;1693209;83;21582;-58
2021/04/12 05:57:52;;;;;;;6.08;5.45;;;;;;;15.10;29.75;99628.26;1654747;83;21194;-57
2021/04/12 06:00:35;;;;;;;8.83;5.83;;;;;;;15.26;29.74;99628.80;1629091;84;21211;-58
2021/04/12 06:03:31;;;;;;;5.55;4.60;;;;;;;15.50;29.21;99638.25;1652379;85;21206;-56
2021/04/12 06:06:28;;;;;;;7.03;5.13;;;;;;;15.78;29.05;99633.64;1672385;84;21151;-57
2021/04/12 06:09:24;;;;;;;7.05;5.28;;;;;;;15.98;28.79;99627.83;1650810;84;21379;-56
2021/04/12 06:12:21;;;;;;;8.38;6.08;;;;;;;16.16;28.64;99643.90;1663774;84;21065;-57
2021/04/12 06:15:11;;;;;;;;;;;;;;;16.19;28.52;99639.48;1667282;84;21052;-56
2021/04/12 06:18:05;;;;;;;6.80;5.28;;;;;;;16.22;28.57;99636.36;1688428;84;20250;-56
2021/04/12 06:21:08;;;;;;;5.58;4.97;;;;;;;16.38;28.19;99634.65;1663694;84;21135;-56
2021/04/12 06:24:11;;;;;;;7.50;5.10;;;;;;;16.40;27.95;99632.61;1647324;84;21377;-60
2021/04/12 06:27:26;;;;;;;7.50;5.55;;;;;;;16.51;28.06;99633.33;1662837;84;21291;-59
2021/04/12 06:30:20;;;;;;;9.10;4.87;;;;;;;16.63;27.77;99635.77;1660418;84;21781;-58
2021/04/12 06:33:17;;;;;;;6.85;5.33;;;;;;;16.83;27.68;99635.26;1664435;84;21135;-58
2021/04/12 06:35:53;;;;;;;6.17;4.77;;;;;;;17.06;27.61;99643.72;1664788;84;21214;-60
2021/04/12 06:38:49;;;;;;;7.25;5.35;;;;;;;17.28;27.46;99635.72;1664577;84;21378;-57
2021/04/12 06:41:55;;;;;;;5.80;5.23;;;;;;;17.49;27.27;99636.53;1664904;84;21252;-59
2021/04/12 06:44:46;;;;;;;5.17;4.33;;;;;;;17.73;26.77;99642.57;1676693;84;21174;-59
2021/04/12 06:47:49;;;;;;;5.97;5.10;;;;;;;17.89;25.94;99640.24;1658281;85;21137;-61
2021/04/12 06:51:07;;;;;;;5.37;4.22;;;;;;;17.89;25.87;99644.79;1687961;84;21203;-59
2021/04/12 06:54:16;;;;;;;6.47;4.90;;;;;;;17.92;25.49;99638.98;1662111;85;21378;-59
2021/04/12 06:57:26;;;;;;;4.58;4.17;;;;;;;17.93;25.67;99643.34;1646383;85;21048;-59
2021/04/12 07:00:15;;;;;;;5.85;4.28;;;;;;;18.07;24.86;99654.34;1642569;85;21163;-59
2021/04/12 07:03:17;;;;;;;5.30;4.17;;;;;;;18.10;24.38;99657.95;1667924;84;21114;-57
2021/04/12 07:06:43;;;;;;;4.42;3.70;;;;;;;18.17;24.51;99645.28;1669659;84;21092;-59
2021/04/12 07:09:34;;;;;;;6.40;4.10;;;;;;;18.21;24.73;99651.07;1680871;84;21009;-59
2021/04/12 07:12:26;;;;;;;6.37;4.22;;;;;;;18.28;24.54;99640.56;1664685;84;21242;-58
2021/04/12 07:15:32;;;;;;;6.05;5.05;;;;;;;18.31;24.91;99640.66;1663503;84;21149;-58
2021/04/12 07:18:58;;;;;;;4.97;4.47;;;;;;;18.57;24.18;99622.17;1698545;84;21154;-58
2021/04/12 07:22:23;;;;;;;5.53;3.80;;;;;;;18.57;24.18;99622.17;1666400;84;21137;-60
2021/04/12 07:25:16;;;;;;;4.92;3.25;;;;;;;18.69;24.40;99617.23;1666376;84;21306;-61
2021/04/12 07:28:33;;;;;;;7.97;4.30;;;;;;;18.69;24.40;99617.23;1663420;84;21198;-59
2021/04/12 07:31:40;;;;;;;5.00;4.00;;;;;;;19.05;24.08;99639.43;1658109;84;21079;-57
2021/04/12 07:34:40;;;;;;;5.22;3.50;;;;;;;19.04;23.75;99624.28;1664653;84;21162;-56
2021/04/12 07:37:45;;;;;;;6.30;4.30;;;;;;;19.00;23.77;99623.09;1663966;85;21510;-58
2021/04/12 07:40:59;;;;;;;4.45;3.75;;;;;;;19.02;24.23;99624.52;1693575;84;21378;-56
2021/04/12 07:43:57;;;;;;;4.80;4.22;;;;;;;19.13;23.82;99620.80;1693795;84;21147;-56
2021/04/12 07:46:36;;;;;;;8.90;3.77;;;;;;;19.13;23.82;99620.80;1670940;85;21126;-59
2021/04/12 07:50:03;;;;;;;7.22;3.25;;;;;;;19.07;23.71;99606.33;1666537;85;20961;-59
2021/04/12 07:53:25;;;;;;;3.87;3.22;;;;;;;18.86;23.17;99609.41;1657120;84;21185;-58
2021/04/12 07:56:18;;;;;;;4.85;3.08;;;;;;;18.86;23.17;99609.41;1695625;84;21645;-57
2021/04/12 07:59:22;;;;;;;4.90;3.85;;;;;;;19.06;23.38;99601.45;1664469;85;21053;-57
2021/04/12 08:02:33;;;;;;;4.47;3.77;;;;;;;19.06;23.38;99601.45;1696025;84;21130;-57
2021/04/12 08:05:23;;;;;;;3.92;3.52;;;;;;;19.06;22.87;99604.14;1696196;84;21178;-57
2021/04/12 08:08:47;;;;;;;3.92;3.30;;;;;;;19.04;22.93;99598.67;1657889;84;21550;-58
2021/04/12 08:11:51;;;;;;;5.65;3.85;;;;;;;19.04;22.93;99598.67;1620008;86;21387;-56
2021/04/12 08:14:46;;;;;;;5.35;3.92;;;;;;;19.27;23.16;99584.54;1635100;87;21311;-58
2021/04/12 08:18:03;;;;;;;5.40;3.80;;;;;;;19.27;23.16;99584.54;1677115;84;21508;-56
2021/04/12 08:20:52;;;;;;;3.90;3.47;;;;;;;19.54;22.22;99604.31;1651290;84;21183;-59
2021/04/12 08:23:42;;;;;;;8.48;3.77;;;;;;;19.47;22.77;99592.78;1665263;84;21128;-57
2021/04/12 08:26:33;;;;;;;5.95;3.85;;;;;;;19.34;22.45;99578.05;1665247;84;21212;-58
2021/04/12 08:29:30;;;;;;;8.28;3.65;;;;;;;19.34;22.45;99578.05;1665201;84;21163;-56
2021/04/12 08:32:32;;;;;;;3.67;3.30;;;;;;;19.43;22.84;99588.03;1665148;84;21206;-56
2021/04/12 08:35:41;;;;;;;4.42;3.67;;;;;;;19.56;22.57;99564.95;1665043;84;21095;-57
2021/04/12 08:38:32;;;;;;;4.00;3.40;;;;;;;19.74;22.21;99574.37;1665090;84;21151;-56
2021/04/12 08:41:35;;;;;;;5.25;3.35;;;;;;;19.80;21.75;99557.80;1659355;86;21513;-57
2021/04/12 08:44:42;;;;;;;4.75;3.62;;;;;;;19.90;22.23;99571.58;1665036;84;21187;-56
2021/04/12 08:47:47;;;;;;;;;;;;;;;20.04;21.59;99557.69;1667605;85;21131;-57
2021/04/12 08:50:40;;;;;;;5.17;3.67;;;;;;;19.98;21.47;99549.14;1632485;87;20240;-56
2021/04/12 08:53:52;;;;;;;3.80;3.45;;;;;;;19.86;21.38;99548.28;1643914;86;21208;-57
2021/04/12 08:56:59;;;;;;;4.10;3.05;;;;;;;19.81;21.10;99560.29;1675742;84;21368;-57
2021/04/12 09:00:08;;;;;;;3.72;3.30;;;;;;;19.82;21.44;99532.75;1633357;85;21110;-57
2021/04/12 09:03:05;;;;;;;4.50;2.98;;;;;;;20.02;21.56;99533.31;1646349;84;21032;-58
2021/04/12 09:06:10;;;;;;;3.83;3.45;;;;;;;20.39;20.91;99538.89;1665326;84;21163;-57
2021/04/12 09:09:01;;;;;;;9.23;3.62;;;;;;;20.56;20.14;99520.13;1665071;84;21586;-56
2021/04/12 09:12:01;;;;;;;3.22;2.92;;;;;;;20.68;20.33;99528.53;1636225;84;21369;-58
2021/04/12 09:15:14;;;;;;;3.60;3.30;;;;;;;20.69;19.43;99523.95;1824538;78;22814;-58
2021/04/12 09:18:23;;;;;;;9.17;3.60;;;;;;;20.61;19.50;99505.38;1766400;78;21101;-59
2021/04/12 09:21:23;;;;;;;5.78;3.42;;;;;;;20.62;19.79;99519.20;1739304;82;21393;-57
2021/04/12 09:24:22;;;;;;;3.10;2.90;;;;;;;20.64;19.54;99511.16;1714220;82;21077;-60
2021/04/12 09:27:24;;;;;;;4.45;3.47;;;;;;;20.70;19.10;99519.66;1714246;82;20974;-59
2021/04/12 09:30:14;;;;;;;5.47;3.55;;;;;;;20.74;18.81;99495.17;1727016;81;20941;-59
2021/04/12 09:33:14;;;;;;;3.55;3.25;;;;;;;20.69;18.72;99486.94;1753947;80;21019;-58
2021/04/12 09:35:50;;;;;;;4.83;3.35;;;;;;;20.75;19.31;99496.80;1752198;80;21435;-57
2021/04/12 09:39:15;;;;;;;4.22;3.83;;;;;;;20.96;18.79;99498.11;1724292;81;21072;-56
2021/04/12 09:42:22;;;;;;;3.80;3.10;;;;;;;20.99;19.00;99492.75;1723887;81;20909;-60
2021/04/12 09:45:17;;;;;;;5.45;3.20;;;;;;;21.15;19.10;99497.44;1724470;81;21148;-59
2021/04/12 09:48:16;;;;;;;6.15;3.25;;;;;;;21.23;18.52;99480.84;1748784;80;21483;-58
2021/04/12 09:50:58;;;;;;;3.55;3.25;;;;;;;21.35;18.34;99484.36;1757812;80;21193;-57
2021/04/12 09:53:50;;;;;;;3.58;3.27;;;;;;;21.43;18.54;99483.98;1726215;80;21023;-57
2021/04/12 09:56:52;;;;;;;3.80;2.95;;;;;;;21.49;18.38;99482.48;1773503;80;21213;-60
2021/04/12 09:59:52;;;;;;;4.35;3.95;;;;;;;21.38;18.23;99467.09;1770022;80;21152;-57
2021/04/12 10:03:05;;;;;;;12.50;9.68;;;;;;;21.41;18.38;99488.27;1730625;80;21566;-56
2021/04/12 10:06:15;;;;;;;5.47;4.95;;;;;;;21.39;18.10;99471.45;1732370;80;21212;-56
2021/04/12 10:09:12;;;;;;;11.10;8.35;;;;;;;21.52;18.50;99473.05;1730158;81;21246;-60
2021/04/12 10:12:01;;;;;;;;;;;;;;;21.83;18.21;99471.73;1739252;81;21226;-57
2021/04/12 10:14:36;;;;;;;5.60;3.22;;;;;;;21.86;18.19;99455.87;1756730;80;20181;-59
2021/04/12 10:17:10;;;;;;;5.22;3.60;;;;;;;21.99;18.09;99469.10;1745397;80;21119;-56
2021/04/12 10:19:46;;;;;;;3.75;3.35;;;;;;;22.17;18.11;99465.34;1737523;81;22083;-56
2021/04/12 10:22:15;;;;;;;3.87;3.50;;;;;;;22.10;17.98;99440.30;1715127;81;22191;-55
2021/04/12 10:25:03;;;;;;;8.53;3.25;;;;;;;22.06;18.30;99441.31;1729402;80;22150;-56
2021/04/12 10:27:49;;;;;;;5.22;3.30;;;;;;;22.15;18.40;99437.67;1734307;81;21600;-56
2021/04/12 10:30:29;;;;;;;4.28;3.40;;;;;;;22.08;18.46;99428.34;1743544;81;20985;-58
2021/04/12 10:33:02;;;;;;;4.37;3.98;;;;;;;21.83;18.29;99441.42;1732845;80;21204;-56
2021/04/12 10:35:51;;;;;;;3.45;2.90;;;;;;;21.61;18.20;99430.19;1723821;81;21041;-59
2021/04/12 10:38:37;;;;;;;5.12;4.28;;;;;;;21.50;18.21;99427.30;1744934;81;21041;-58
2021/04/12 10:41:27;;;;;;;10.60;9.55;;;;;;;21.42;18.07;99425.50;1735198;81;21137;-58
2021/04/12 10:44:27;;;;;;;14.35;11.73;;;;;;;21.39;18.40;99426.81;1746587;81;21155;-57
2021/04/12 10:47:31;;;;;;;7.67;6.80;;;;;;;21.45;18.25;99412.32;1732775;80;21200;-57
2021/04/12 10:50:22;;;;;;;11.75;10.58;;;;;;;21.26;18.41;99416.80;1725635;81;21159;-58
2021/04/12 10:53:22;;;;;;;13.22;11.68;;;;;;;21.15;18.02;99419.00;1725132;81;21128;-56
2021/04/12 10:56:04;;;;;;;6.60;5.90;;;;;;;21.05;18.11;99410.65;1739599;81;21032;-56
2021/04/12 10:58:46;;;;;;;5.95;5.35;;;;;;;21.00;18.08;99429.47;1737268;81;21040;-56
2021/04/12 11:01:32;;;;;;;6.72;4.08;;;;;;;20.81;18.38;99417.98;1744095;81;22155;-57
2021/04/12 11:04:55;;;;;;;6.17;4.95;;;;;;;20.70;18.29;99402.08;1737037;81;21143;-59
2021/04/12 11:08:02;;;;;;;10.45;5.35;;;;;;;20.78;18.24;99403.06;1735271;81;20978;-57
2021/04/12 11:11:00;;;;;;;5.22;3.87;;;;;;;20.78;18.24;99403.06;1739711;81;21025;-59
2021/04/12 11:14:02;;;;;;;5.03;4.53;;;;;;;20.82;17.00;99411.01;1721118;81;21208;-55
2021/04/12 11:16:42;;;;;;;8.28;6.40;;;;;;;20.65;17.75;99391.16;1720217;82;21366;-59
2021/04/12 11:19:26;;;;;;;5.33;4.40;;;;;;;20.60;17.88;99399.67;1736768;82;21607;-57
2021/04/12 11:22:22;;;;;;;5.35;4.65;;;;;;;20.55;17.27;99396.86;1726909;82;21567;-57
2021/04/12 11:25:20;;;;;;;8.80;7.97;;;;;;;20.43;17.65;99381.20;1716891;82;21035;-57
2021/04/12 11:28:24;;;;;;;8.10;5.83;;;;;;;20.45;17.31;99383.13;1733739;82;21213;-56
2021/04/12 11:31:18;;;;;;;4.12;3.72;;;;;;;20.43;17.95;99384.73;1723340;82;21265;-55
2021/04/12 11:34:19;;;;;;;5.27;4.50;;;;;;;20.43;17.76;99375.27;1732934;82;21080;-55
2021/04/12 11:37:09;;;;;;;4.25;3.70;;;;;;;20.37;18.05;99365.92;1737065;82;21033;-57
2021/04/12 11:39:41;;;;;;;4.10;3.70;;;;;;;20.29;18.18;99368.45;1715831;82;21160;-56
2021/04/12 11:42:13;;;;;;;7.55;3.90;;;;;;;20.14;17.99;99354.58;1737849;82;21191;-56
2021/04/12 11:44:52;;;;;;;6.00;4.90;;;;;;;20.04;18.06;99359.22;1713402;82;21438;-56
2021/04/12 11:47:48;;;;;;;4.97;4.00;;;;;;;20.01;18.03;99358.85;1717932;82;21236;-57
2021/04/12 11:50:36;;;;;;;3.58;3.27;;;;;;;19.94;17.51;99354.93;1724095;82;21033;-56
2021/04/12 11:53:30;;;;;;;4.37;3.80;;;;;;;19.83;18.14;99348.98;1720133;80;20962;-57
2021/04/12 11:56:35;;;;;;;4.42;3.50;;;;;;;19.85;18.23;99345.52;1720819;82;21176;-61
2021/04/12 11:59:36;;;;;;;5.95;3.80;;;;;;;19.83;17.78;99346.28;1730090;82;21370;-56
2021/04/12 12:02:24;;;;;;;3.95;3.15;;;;;;;19.74;17.68;99335.52;1733856;82;21102;-56
2021/04/12 12:04:58;;;;;;;4.58;3.42;;;;;;;19.70;17.88;99328.95;1722205;82;20990;-55
2021/04/12 12:07:59;;;;;;;5.47;3.60;;;;;;;19.71;17.79;99326.02;1730752;82;21040;-56
2021/04/12 12:11:01;;;;;;;5.25;3.50;;;;;;;19.73;17.85;99312.83;1720028;80;21156;-57
2021/04/12 12:13:51;;;;;;;3.70;3.40;;;;;;;19.78;18.18;99311.59;1713400;82;21203;-60
2021/04/12 12:16:35;;;;;;;4.10;3.33;;;;;;;19.84;18.06;99303.38;1708172;82;21049;-56
2021/04/12 12:19:23;;;;;;;4.87;4.08;;;;;;;19.86;18.13;99304.51;1715775;82;21012;-57
2021/04/12 12:21:55;;;;;;;5.20;4.10;;;;;;;19.85;18.21;99301.50;1714841;82;21053;-57
2021/04/12 12:24:38;;;;;;;5.55;4.08;;;;;;;19.84;18.76;99311.47;1714538;82;21127;-55
2021/04/12 12:27:17;;;;;;;4.72;4.33;;;;;;;19.79;18.75;99297.86;1713671;82;21230;-58
2021/04/12 12:29:49;;;;;;;5.70;4.10;;;;;;;19.76;18.59;99316.41;1705628;82;20950;-56
2021/04/12 12:32:25;;;;;;;6.28;4.25;;;;;;;19.60;18.43;99297.16;1714794;81;20946;-57
2021/04/12 12:35:04;;;;;;;5.65;3.70;;;;;;;19.46;18.38;99299.77;1728678;81;21181;-59
2021/04/12 12:38:07;;;;;;;4.85;4.28;;;;;;;19.41;18.23;99302.33;1714640;82;21224;-57
2021/04/12 12:40:55;;;;;;;4.03;3.58;;;;;;;19.42;18.33;99307.20;1728297;82;21140;-55
2021/04/12 12:43:34;;;;;;;4.35;3.10;;;;;;;19.37;18.18;99294.39;1724619;80;21084;-57
2021/04/12 12:46:07;;;;;;;6.08;3.70;;;;;;;19.31;18.68;99306.09;1723626;82;21175;-56
2021/04/12 12:48:38;;;;;;;3.90;3.50;;;;;;;19.28;18.66;99289.02;1770414;79;21097;-56
2021/04/12 12:51:25;;;;;;;4.33;3.92;;;;;;;19.25;18.73;99288.12;1766208;79;21117;-58
2021/04/12 12:54:02;;;;;;;7.12;3.42;;;;;;;19.22;18.90;99279.14;1768532;79;21352;-58
2021/04/12 12:56:33;;;;;;;3.55;3.00;;;;;;;19.23;18.92;99274.05;1769648;79;20986;-59
2021/04/12 12:59:08;;;;;;;6.78;3.90;;;;;;;19.23;18.93;99268.66;1767307;79;20998;-56
2021/04/12 13:01:38;;;;;;;5.03;4.55;;;;;;;19.19;19.40;99270.16;1767311;79;21056;-57
2021/04/12 13:04:17;;;;;;;5.20;4.15;;;;;;;19.11;19.69;99273.18;1772406;78;21681;-58
2021/04/12 13:06:47;;;;;;;4.58;3.62;;;;;;;19.07;19.62;99278.75;1777523;79;21189;-56
2021/04/12 13:09:26;;;;;;;4.85;4.10;;;;;;;19.05;19.51;99276.81;1776053;79;21128;-59
2021/04/12 13:12:06;;;;;;;4.40;3.65;;;;;;;19.03;19.60;99263.55;1766910;79;21075;-55
2021/04/12 13:14:42;;;;;;;4.25;3.85;;;;;;;19.05;19.42;99264.17;1775187;79;21065;-57
2021/04/12 13:17:32;;;;;;;4.17;3.85;;;;;;;19.06;19.18;99268.48;1781242;79;21658;-55
2021/04/12 13:20:12;;;;;;;3.83;3.50;;;;;;;19.03;18.97;99262.20;1780407;79;20942;-58
2021/04/12 13:22:46;;;;;;;4.55;4.03;;;;;;;18.99;19.43;99256.98;1791710;79;20989;-56
2021/04/12 13:25:36;;;;;;;6.92;3.58;;;;;;;18.99;19.53;99257.51;1786820;79;20906;-58
2021/04/12 13:28:33;;;;;;;4.17;3.37;;;;;;;18.96;19.00;99259.31;1780383;79;20985;-56
2021/04/12 13:31:08;;;;;;;5.65;4.10;;;;;;;18.89;18.93;99254.55;1775654;79;21383;-58
2021/04/12 13:33:42;;;;;;;6.42;3.80;;;;;;;18.84;19.26;99253.89;1775510;79;21495;-56
2021/04/12 13:36:32;;;;;;;4.92;3.25;;;;;;;18.89;19.47;99251.85;1774774;79;21593;-54
2021/04/12 13:39:10;;;;;;;9.43;3.25;;;;;;;18.99;19.14;99241.34;1771550;79;21136;-60
2021/04/12 13:41:47;;;;;;;5.90;3.55;;;;;;;19.00;18.74;99240.30;1774833;79;21084;-56
2021/04/12 13:44:18;;;;;;;5.65;3.12;;;;;;;18.94;18.56;99235.30;1772693;79;21567;-58
2021/04/12 13:47:08;;;;;;;7.53;3.22;;;;;;;18.90;18.75;99231.95;1774678;79;21327;-56